Details for BA SUN-AIR of Scandinavia at EKBI




Go Back


Latest METAR
Local Time

EKBI 241350Z AUTO 07012KT 9999NDV NCD M01/M09 Q1035

24/02/2018, 14:54:11

Description
Results
BA SUN-AIR of Scandinavia Logo
Number of Pilots based at EKBI
1 Pilots Based here
Number of BA SUN-AIR of Scandinavia Flights Departed from EKBI
0 Flights Departed
Number of BA SUN-AIR of Scandinavia Flights Arrived at EKBI
0 Flights Arrived
Number of BA SUN-AIR of Scandinavia Schedules Departing from EKBI
15 Schedules
Number of BA SUN-AIR of Scandinavia Schedules Arriving at EKBI
14 Schedules
Number of BA SUN-AIR of Scandinavia Schedules Departing from EKBI availible today
0 Schedules Today
Number of BA SUN-AIR of Scandinavia Schedules Arriving at EKBI availible today
0 Schedules Today
Average Landing Rate at EKBI
-232 fpm
BA SUN-AIR of Scandinavia Average Landing Rate at EKBI
0 fpm
Total Fuel Purchased at EKBI by BA SUN-AIR of Scandinavia
0.00 kgs / 0.00 lbs

Pilots Based at EKBI


Pilot ID
Pilot Name
Pilot Rank
No. of Flights
No. of Flying Hours
Ole Andreasen
158
389.39
Content